createdAt,value
2018-08-03T00:02:12.915Z,8.70
2018-08-03T00:04:41.394Z,8.17
2018-08-03T00:07:10.316Z,8.00
2018-08-03T00:09:39.265Z,7.63
2018-08-03T00:12:08.199Z,7.77
2018-08-03T00:14:37.147Z,8.30
2018-08-03T00:17:06.092Z,8.13
2018-08-03T00:19:35.046Z,8.07
2018-08-03T00:22:03.982Z,8.33
2018-08-03T00:24:32.905Z,8.17
2018-08-03T00:27:01.856Z,7.47
2018-08-03T00:29:30.784Z,7.37
2018-08-03T00:31:59.688Z,7.27
2018-08-03T00:34:28.612Z,7.30
2018-08-03T00:36:57.542Z,7.50
2018-08-03T00:39:26.492Z,6.50
2018-08-03T00:41:55.465Z,6.90
2018-08-03T00:44:24.458Z,7.20
2018-08-03T00:46:53.376Z,7.57
2018-08-03T00:49:22.296Z,6.63
2018-08-03T00:51:51.196Z,7.37
2018-08-03T00:54:20.157Z,6.97
2018-08-03T00:56:49.076Z,6.73
2018-08-03T00:59:17.997Z,6.77
2018-08-03T01:01:46.936Z,6.30
2018-08-03T01:04:15.872Z,6.60
2018-08-03T01:06:44.780Z,6.33
2018-08-03T01:09:14.240Z,6.37
2018-08-03T01:11:43.145Z,6.40
2018-08-03T01:14:12.069Z,5.87
2018-08-03T01:16:42.608Z,5.83
2018-08-03T01:19:13.387Z,6.30
2018-08-03T01:21:43.472Z,6.30
2018-08-03T01:24:12.412Z,6.20
2018-08-03T01:26:41.388Z,6.40
2018-08-03T01:29:10.325Z,5.87
2018-08-03T01:31:39.238Z,6.37
2018-08-03T01:34:08.180Z,6.33
2018-08-03T01:36:37.097Z,6.23
2018-08-03T01:39:08.137Z,6.03
2018-08-03T01:41:37.070Z,6.10
2018-08-03T01:44:06.081Z,6.07
2018-08-03T01:46:35.000Z,6.60
2018-08-03T01:49:04.132Z,6.40
2018-08-03T01:51:33.048Z,5.97
2018-08-03T01:54:01.975Z,6.30
2018-08-03T01:56:30.868Z,6.10
2018-08-03T01:58:59.803Z,5.40
2018-08-03T02:01:28.722Z,6.10
2018-08-03T02:03:57.665Z,5.57
2018-08-03T02:06:28.544Z,5.93
2018-08-03T02:08:57.531Z,5.90
2018-08-03T02:11:26.484Z,5.97
2018-08-03T02:13:55.487Z,5.77
2018-08-03T02:16:24.417Z,5.27
2018-08-03T02:18:53.353Z,5.60
2018-08-03T02:21:22.263Z,5.73
2018-08-03T02:23:51.199Z,5.77
2018-08-03T02:26:20.145Z,5.20
2018-08-03T02:28:49.096Z,6.20
2018-08-03T02:31:18.019Z,5.93
2018-08-03T02:33:47.005Z,5.80
2018-08-03T02:36:15.909Z,5.67
2018-08-03T02:38:44.852Z,5.67
2018-08-03T02:41:13.749Z,5.60
2018-08-03T02:43:42.707Z,5.50
2018-08-03T02:46:11.612Z,5.07
2018-08-03T02:48:40.545Z,5.50
2018-08-03T02:51:09.452Z,6.00
2018-08-03T02:53:38.408Z,5.33
2018-08-03T02:56:07.388Z,5.90
2018-08-03T02:58:36.372Z,5.17
2018-08-03T03:01:05.301Z,4.83
2018-08-03T03:03:34.282Z,5.70
2018-08-03T03:06:03.180Z,5.37
2018-08-03T03:08:32.117Z,5.27
2018-08-03T03:11:01.023Z,5.30
2018-08-03T03:13:29.940Z,5.70
2018-08-03T03:15:58.900Z,5.50
2018-08-03T03:18:27.860Z,5.93
2018-08-03T03:20:56.807Z,6.20
2018-08-03T03:23:25.798Z,5.77
2018-08-03T03:25:54.737Z,5.83
2018-08-03T03:28:23.689Z,6.47
2018-08-03T03:30:52.667Z,5.73
2018-08-03T03:33:21.650Z,5.97
2018-08-03T03:35:50.541Z,6.33
2018-08-03T03:38:19.485Z,5.87
2018-08-03T03:40:48.389Z,5.97
2018-08-03T03:43:17.347Z,5.67
2018-08-03T03:45:46.241Z,5.73
2018-08-03T03:48:15.201Z,6.07
2018-08-03T03:50:44.137Z,6.00
2018-08-03T03:53:13.036Z,5.50
2018-08-03T03:55:41.984Z,5.83
2018-08-03T03:58:10.898Z,6.33
2018-08-03T04:00:39.820Z,5.80
2018-08-03T04:03:08.725Z,5.10
2018-08-03T04:05:37.657Z,6.00
2018-08-03T04:08:06.548Z,6.13
2018-08-03T04:10:35.500Z,5.87
2018-08-03T04:13:04.452Z,5.43
2018-08-03T04:15:33.397Z,5.47
2018-08-03T04:18:02.320Z,5.47
2018-08-03T04:20:31.284Z,5.83
2018-08-03T04:23:00.197Z,5.60
2018-08-03T04:25:29.166Z,5.70
2018-08-03T04:27:58.077Z,5.80
2018-08-03T04:30:27.085Z,6.40
2018-08-03T04:32:56.046Z,6.30
2018-08-03T04:35:25.060Z,5.47
2018-08-03T04:37:54.013Z,6.87
2018-08-03T04:40:23.004Z,5.77
2018-08-03T04:42:51.908Z,5.87
2018-08-03T04:45:20.850Z,5.73
2018-08-03T04:47:49.773Z,5.90
2018-08-03T04:50:18.726Z,6.20
2018-08-03T04:52:47.653Z,6.50
2018-08-03T04:55:16.641Z,6.43
2018-08-03T04:57:45.548Z,6.17
2018-08-03T05:00:14.498Z,6.60
2018-08-03T05:02:43.392Z,7.30
2018-08-03T05:05:12.496Z,7.07
2018-08-03T05:07:41.416Z,6.80
2018-08-03T05:10:10.372Z,6.80
2018-08-03T05:12:39.284Z,6.77
2018-08-03T05:15:08.765Z,6.50
2018-08-03T05:17:37.932Z,6.30
2018-08-03T05:20:07.477Z,6.80
2018-08-03T05:22:36.428Z,6.60
2018-08-03T05:25:06.849Z,6.40
2018-08-03T05:27:35.790Z,6.13
2018-08-03T05:30:06.691Z,6.53
2018-08-03T05:32:35.633Z,6.53
2018-08-03T05:35:05.592Z,6.27
2018-08-03T05:37:34.521Z,6.40
2018-08-03T05:40:04.216Z,6.47
2018-08-03T05:42:33.143Z,6.93
2018-08-03T05:45:02.637Z,6.43
2018-08-03T05:47:31.539Z,7.13
2018-08-03T05:50:00.483Z,6.37
2018-08-03T05:52:29.403Z,6.83
2018-08-03T05:54:58.363Z,6.63
2018-08-03T05:57:27.348Z,6.17
2018-08-03T05:59:56.821Z,7.20
2018-08-03T06:02:26.622Z,6.67
2018-08-03T06:04:55.613Z,7.00
2018-08-03T06:07:24.556Z,7.13
2018-08-03T06:09:53.608Z,6.80
2018-08-03T06:12:22.576Z,6.40
2018-08-03T06:14:51.601Z,6.90
2018-08-03T06:17:20.461Z,7.57
2018-08-03T06:19:49.414Z,6.23
2018-08-03T06:22:18.350Z,6.40
2018-08-03T06:24:47.337Z,6.77
2018-08-03T06:27:16.277Z,6.60
2018-08-03T06:29:45.255Z,6.80
2018-08-03T06:32:14.188Z,7.17
2018-08-03T06:34:43.180Z,5.73
2018-08-03T06:37:12.090Z,6.40
2018-08-03T06:39:41.032Z,6.03
2018-08-03T06:42:09.985Z,6.60
2018-08-03T06:44:38.900Z,6.27
2018-08-03T06:47:07.898Z,5.57
2018-08-03T06:49:36.917Z,6.00
2018-08-03T06:52:05.865Z,6.00
2018-08-03T06:54:34.844Z,5.33
2018-08-03T06:57:03.834Z,5.30
2018-08-03T06:59:32.774Z,5.37
2018-08-03T07:02:01.751Z,5.43
2018-08-03T07:04:30.792Z,5.20
2018-08-03T07:06:59.717Z,5.40
2018-08-03T07:09:28.689Z,5.23
2018-08-03T07:11:57.678Z,4.93
2018-08-03T07:14:26.623Z,5.67
2018-08-03T07:16:55.773Z,5.70
2018-08-03T07:19:24.680Z,6.07
2018-08-03T07:21:53.650Z,5.33
2018-08-03T07:24:22.560Z,5.50
2018-08-03T07:26:51.555Z,5.60
2018-08-03T07:29:20.522Z,5.13
2018-08-03T07:31:49.467Z,5.03
2018-08-03T07:34:18.444Z,5.00
2018-08-03T07:36:47.462Z,6.17
2018-08-03T07:39:16.405Z,4.90
2018-08-03T07:41:45.337Z,5.10
2018-08-03T07:44:14.286Z,5.37
2018-08-03T07:46:43.224Z,5.30
2018-08-03T07:49:12.122Z,5.07
2018-08-03T07:51:41.070Z,5.67
2018-08-03T07:54:09.988Z,5.10
2018-08-03T07:56:38.967Z,5.10
2018-08-03T07:59:07.857Z,5.30
2018-08-03T08:01:36.845Z,5.33
2018-08-03T08:04:05.825Z,5.90
2018-08-03T08:06:34.822Z,5.37
2018-08-03T08:09:04.620Z,5.27
2018-08-03T08:11:33.552Z,5.60
2018-08-03T08:14:02.469Z,5.73
2018-08-03T08:16:31.482Z,6.40
2018-08-03T08:19:00.398Z,6.50
2018-08-03T08:21:29.434Z,6.17
2018-08-03T08:23:58.400Z,5.87
2018-08-03T08:26:27.398Z,6.73
2018-08-03T08:28:56.348Z,5.73
2018-08-03T08:31:25.358Z,5.97
2018-08-03T08:33:54.671Z,6.40
2018-08-03T08:36:23.590Z,6.60
2018-08-03T08:38:52.546Z,5.67
2018-08-03T08:41:21.024Z,6.30
2018-08-03T08:43:50.541Z,6.27
2018-08-03T08:46:19.386Z,6.50
2018-08-03T08:48:48.337Z,5.63
2018-08-03T08:51:17.238Z,6.23
2018-08-03T08:53:46.172Z,6.03
2018-08-03T08:56:15.077Z,6.77
2018-08-03T08:58:44.009Z,6.43
2018-08-03T09:01:12.914Z,6.10
2018-08-03T09:03:41.868Z,6.87
2018-08-03T09:06:10.452Z,6.30
2018-08-03T09:08:39.414Z,6.43
2018-08-03T09:11:09.109Z,6.30
2018-08-03T09:13:38.058Z,6.10
2018-08-03T09:16:06.623Z,6.70
2018-08-03T09:18:35.600Z,6.47
2018-08-03T09:21:04.502Z,7.17
2018-08-03T09:23:33.484Z,6.53
2018-08-03T09:26:02.401Z,6.70
2018-08-03T09:28:31.397Z,6.60
2018-08-03T09:31:00.312Z,6.27
2018-08-03T09:33:29.268Z,6.60
2018-08-03T09:35:58.535Z,7.93
2018-08-03T09:38:27.499Z,8.40
2018-08-03T09:40:56.501Z,6.93
2018-08-03T09:43:25.519Z,6.27
2018-08-03T09:45:54.431Z,7.60
2018-08-03T09:48:23.372Z,6.30
2018-08-03T09:50:52.280Z,6.70
2018-08-03T09:53:21.210Z,6.73
2018-08-03T09:55:50.166Z,6.60
2018-08-03T09:58:19.325Z,6.97
2018-08-03T10:00:53.826Z,6.30
2018-08-03T10:03:22.769Z,7.10
2018-08-03T10:05:51.748Z,6.90
2018-08-03T10:08:20.970Z,6.87
2018-08-03T10:10:50.043Z,6.00
2018-08-03T10:13:18.994Z,6.60
2018-08-03T10:15:47.902Z,5.93
2018-08-03T10:18:16.829Z,6.93
2018-08-03T10:20:45.743Z,6.87
2018-08-03T10:23:14.694Z,6.50
2018-08-03T10:25:43.626Z,6.63
2018-08-03T10:28:12.578Z,6.57
2018-08-03T10:30:41.574Z,6.30
2018-08-03T10:33:10.517Z,7.03
2018-08-03T10:35:39.449Z,6.03
2018-08-03T10:38:08.364Z,6.90
2018-08-03T10:40:37.335Z,6.60
2018-08-03T10:43:06.360Z,6.73
2018-08-03T10:45:35.324Z,6.70
2018-08-03T10:48:04.237Z,6.40
2018-08-03T10:50:33.201Z,6.73
2018-08-03T10:53:02.109Z,6.97
2018-08-03T10:55:31.045Z,7.03
2018-08-03T10:58:00.066Z,6.73
2018-08-03T11:00:30.552Z,6.37
2018-08-03T11:02:59.878Z,6.57
2018-08-03T11:05:29.266Z,6.23
2018-08-03T11:07:58.334Z,6.80
2018-08-03T11:10:27.317Z,7.10
2018-08-03T11:12:56.343Z,7.87
2018-08-03T11:15:25.260Z,6.90
2018-08-03T11:17:54.165Z,6.80
2018-08-03T11:20:23.097Z,6.83
2018-08-03T11:22:51.992Z,6.42
2018-08-03T11:25:20.936Z,6.50
2018-08-03T11:27:49.866Z,6.60
2018-08-03T11:30:18.816Z,7.08
2018-08-03T11:32:47.725Z,7.12
2018-08-03T11:35:16.770Z,6.67
2018-08-03T11:37:45.677Z,6.80
2018-08-03T11:40:14.640Z,6.85
2018-08-03T11:42:43.585Z,7.58
2018-08-03T11:45:12.556Z,6.67
2018-08-03T11:47:41.495Z,6.92
2018-08-03T11:50:11.365Z,7.03
2018-08-03T11:52:40.536Z,6.70
2018-08-03T11:55:09.489Z,6.50
2018-08-03T11:57:38.433Z,6.87
2018-08-03T12:00:07.461Z,6.22
2018-08-03T12:02:36.380Z,6.83
2018-08-03T12:05:05.877Z,6.45
2018-08-03T12:07:34.799Z,6.85
2018-08-03T12:10:04.514Z,7.15
2018-08-03T12:12:33.462Z,7.00
2018-08-03T12:15:02.901Z,7.40
2018-08-03T12:17:31.821Z,6.90
2018-08-03T12:20:00.818Z,7.08
2018-08-03T12:22:29.738Z,6.85
2018-08-03T12:24:58.698Z,6.97
2018-08-03T12:27:27.697Z,7.20
2018-08-03T12:29:56.712Z,6.95
2018-08-03T12:32:25.649Z,7.22
2018-08-03T12:34:54.656Z,6.28
2018-08-03T12:37:23.688Z,6.72
2018-08-03T12:39:52.674Z,6.75
2018-08-03T12:42:21.166Z,6.17
2018-08-03T12:44:50.156Z,6.33
2018-08-03T12:47:19.093Z,6.40
2018-08-03T12:49:48.087Z,6.62
2018-08-03T12:52:16.992Z,6.62
2018-08-03T12:54:45.941Z,6.60
2018-08-03T12:57:14.883Z,6.55
2018-08-03T12:59:44.014Z,6.78
2018-08-03T13:02:12.838Z,6.83
2018-08-03T13:04:41.786Z,6.50
2018-08-03T13:07:10.846Z,6.30
2018-08-03T13:09:39.736Z,6.37
2018-08-03T13:12:08.703Z,6.60
2018-08-03T13:14:37.658Z,5.92
2018-08-03T13:17:06.631Z,5.90
2018-08-03T13:19:35.550Z,5.92
2018-08-03T13:22:04.506Z,6.72
2018-08-03T13:24:33.442Z,5.78
2018-08-03T13:27:02.421Z,5.80
2018-08-03T13:29:31.415Z,6.42
2018-08-03T13:32:00.363Z,5.97
2018-08-03T13:34:29.269Z,6.10
2018-08-03T13:36:58.294Z,6.58
2018-08-03T13:39:27.196Z,6.42
2018-08-03T13:41:56.797Z,6.33
2018-08-03T13:44:25.739Z,6.20
2018-08-03T13:46:54.693Z,6.25
2018-08-03T13:49:23.713Z,6.22
2018-08-03T13:51:52.695Z,5.75
2018-08-03T13:54:21.628Z,6.15
2018-08-03T13:56:50.609Z,5.92
2018-08-03T13:59:19.570Z,6.53
2018-08-03T14:01:59.511Z,5.97
2018-08-03T14:04:28.505Z,5.92
2018-08-03T14:06:57.934Z,6.22
2018-08-03T14:09:26.896Z,7.30
2018-08-03T14:11:55.945Z,7.17
2018-08-03T14:14:24.855Z,5.87
2018-08-03T14:16:53.811Z,6.00
2018-08-03T14:19:22.774Z,6.10
2018-08-03T14:21:51.727Z,6.35
2018-08-03T14:24:20.729Z,6.55
2018-08-03T14:26:49.699Z,6.22
2018-08-03T14:29:18.602Z,6.45
2018-08-03T14:31:47.671Z,6.85
2018-08-03T14:34:16.591Z,5.80
2018-08-03T14:36:49.658Z,6.37
2018-08-03T14:39:18.578Z,6.40
2018-08-03T14:41:47.514Z,5.47
2018-08-03T14:44:16.471Z,6.12
2018-08-03T14:46:46.863Z,6.45
2018-08-03T14:49:15.801Z,5.70
2018-08-03T14:51:44.766Z,5.80
2018-08-03T14:54:13.735Z,6.22
2018-08-03T14:56:42.258Z,6.47
2018-08-03T14:59:11.185Z,6.42
2018-08-03T15:01:40.136Z,6.87
2018-08-03T15:04:09.042Z,6.70
2018-08-03T15:06:38.004Z,6.85
2018-08-03T15:09:09.733Z,5.85
2018-08-03T15:11:38.726Z,6.45
2018-08-03T15:14:07.657Z,6.40
2018-08-03T15:16:36.865Z,6.25
2018-08-03T15:19:05.821Z,6.00
2018-08-03T15:21:34.837Z,6.47
2018-08-03T15:24:03.741Z,6.53
2018-08-03T15:26:32.672Z,7.72
2018-08-03T15:29:01.604Z,8.40
2018-08-03T15:31:30.489Z,8.43
2018-08-03T15:33:59.469Z,8.08
2018-08-03T15:36:28.525Z,6.90
2018-08-03T15:38:58.578Z,7.30
2018-08-03T15:41:27.594Z,7.28
2018-08-03T15:43:56.176Z,6.75
2018-08-03T15:46:25.108Z,6.55
2018-08-03T15:48:54.120Z,7.28
2018-08-03T15:51:23.095Z,7.30
2018-08-03T15:53:52.080Z,6.75
2018-08-03T15:56:21.024Z,6.75
2018-08-03T15:58:49.975Z,6.58
2018-08-03T16:01:18.951Z,6.50
2018-08-03T16:03:47.950Z,6.78
2018-08-03T16:06:16.884Z,6.40
2018-08-03T16:08:45.908Z,6.30
2018-08-03T16:11:14.821Z,6.10
2018-08-03T16:13:43.856Z,6.25
2018-08-03T16:16:12.778Z,6.35
2018-08-03T16:18:41.755Z,6.25
2018-08-03T16:21:10.695Z,5.83
2018-08-03T16:23:39.703Z,5.95
2018-08-03T16:26:08.629Z,5.97
2018-08-03T16:28:37.573Z,6.50
2018-08-03T16:31:06.549Z,6.85
2018-08-03T16:33:35.131Z,5.85
2018-08-03T16:36:04.078Z,5.90
2018-08-03T16:38:33.050Z,5.62
2018-08-03T16:41:02.005Z,5.75
2018-08-03T16:43:30.944Z,6.28
2018-08-03T16:45:59.964Z,5.75
2018-08-03T16:48:30.408Z,5.90
2018-08-03T16:50:59.400Z,6.03
2018-08-03T16:53:28.617Z,5.95
2018-08-03T16:55:57.602Z,6.08
2018-08-03T16:58:26.626Z,6.60
2018-08-03T17:00:55.865Z,6.42
2018-08-03T17:03:24.831Z,6.42
2018-08-03T17:05:53.769Z,6.50
2018-08-03T17:08:22.751Z,6.78
2018-08-03T17:10:51.689Z,6.92
2018-08-03T17:13:20.660Z,6.72
2018-08-03T17:15:49.568Z,6.17
2018-08-03T17:18:20.171Z,6.47
2018-08-03T17:20:49.157Z,6.35
2018-08-03T17:23:18.112Z,6.28
2018-08-03T17:25:47.048Z,6.10
2018-08-03T17:28:16.041Z,6.20
2018-08-03T17:30:45.150Z,6.55
2018-08-03T17:33:14.156Z,5.90
2018-08-03T17:35:43.109Z,5.50
2018-08-03T17:38:12.161Z,6.53
2018-08-03T17:40:41.150Z,6.10
2018-08-03T17:43:10.101Z,6.03
2018-08-03T17:45:39.059Z,6.45
2018-08-03T17:48:08.289Z,7.00
2018-08-03T17:50:37.253Z,6.22
2018-08-03T17:53:06.237Z,6.72
2018-08-03T17:55:34.920Z,6.50
2018-08-03T17:58:04.034Z,6.53
2018-08-03T18:00:32.983Z,6.62
2018-08-03T18:03:02.416Z,6.35
2018-08-03T18:05:31.366Z,5.90
2018-08-03T18:08:00.322Z,6.17
2018-08-03T18:10:29.260Z,5.80
2018-08-03T18:12:58.242Z,5.92
2018-08-03T18:15:27.241Z,6.22
2018-08-03T18:17:56.210Z,6.42
2018-08-03T18:20:25.205Z,6.97
2018-08-03T18:22:54.147Z,7.85
2018-08-03T18:25:23.121Z,7.30
2018-08-03T18:27:52.130Z,7.70
2018-08-03T18:30:21.108Z,6.90
2018-08-03T18:32:50.073Z,7.90
2018-08-03T18:35:19.068Z,8.08
2018-08-03T18:37:47.988Z,6.45
2018-08-03T18:40:16.982Z,6.67
2018-08-03T18:42:45.908Z,7.37
2018-08-03T18:45:15.009Z,6.72
2018-08-03T18:47:44.098Z,7.08
2018-08-03T18:50:13.103Z,7.12
2018-08-03T18:52:41.610Z,6.87
2018-08-03T18:55:10.610Z,6.83
2018-08-03T18:57:39.607Z,6.25
2018-08-03T19:00:08.775Z,6.35
2018-08-03T19:02:37.718Z,6.95
2018-08-03T19:05:07.169Z,6.08
2018-08-03T19:07:36.349Z,6.42
2018-08-03T19:10:05.374Z,6.45
2018-08-03T19:12:34.324Z,6.50
2018-08-03T19:15:03.336Z,6.85
2018-08-03T19:17:32.286Z,6.35
2018-08-03T19:20:01.298Z,6.92
2018-08-03T19:22:30.267Z,6.25
2018-08-03T19:24:59.293Z,6.25
2018-08-03T19:27:28.801Z,6.22
2018-08-03T19:29:57.797Z,6.67
2018-08-03T19:32:26.746Z,6.60
2018-08-03T19:34:55.849Z,6.83
2018-08-03T19:37:24.812Z,6.15
2018-08-03T19:39:53.809Z,6.67
2018-08-03T19:42:22.757Z,6.30
2018-08-03T19:44:52.612Z,6.58
2018-08-03T19:47:21.545Z,6.00
2018-08-03T19:49:50.512Z,6.40
2018-08-03T19:52:19.449Z,6.10
2018-08-03T19:54:48.439Z,6.25
2018-08-03T19:57:17.401Z,6.28
2018-08-03T19:59:46.383Z,7.03
2018-08-03T20:02:15.306Z,6.72
2018-08-03T20:04:44.284Z,7.08
2018-08-03T20:07:13.211Z,6.62
2018-08-03T20:09:42.183Z,7.03
2018-08-03T20:12:11.109Z,6.70
2018-08-03T20:14:40.076Z,6.35
2018-08-03T20:17:08.996Z,6.40
2018-08-03T20:19:38.038Z,7.00
2018-08-03T20:22:12.809Z,6.70
2018-08-03T20:24:42.075Z,6.55
2018-08-03T20:27:10.997Z,6.58
2018-08-03T20:29:40.005Z,5.97
2018-08-03T20:32:12.865Z,6.62
2018-08-03T20:34:41.821Z,6.70
2018-08-03T20:37:10.810Z,6.60
2018-08-03T20:39:39.809Z,7.40
2018-08-03T20:42:08.773Z,6.62
2018-08-03T20:44:37.840Z,7.17
2018-08-03T20:47:06.801Z,6.67
2018-08-03T20:49:35.862Z,6.53
2018-08-03T20:52:04.885Z,6.50
2018-08-03T20:54:33.909Z,6.25
2018-08-03T20:57:02.815Z,6.53
2018-08-03T20:59:32.012Z,6.75
2018-08-03T21:02:00.946Z,7.22
2018-08-03T21:04:30.111Z,6.55
2018-08-03T21:06:59.090Z,7.12
2018-08-03T21:09:28.054Z,7.22
2018-08-03T21:11:57.050Z,6.80
2018-08-03T21:14:26.050Z,7.22
2018-08-03T21:16:58.801Z,6.25
2018-08-03T21:19:27.802Z,6.30
2018-08-03T21:21:56.774Z,7.55
2018-08-03T21:24:25.785Z,6.45
2018-08-03T21:26:54.761Z,7.60
2018-08-03T21:29:23.835Z,7.22
2018-08-03T21:31:52.832Z,7.65
2018-08-03T21:34:21.762Z,7.03
2018-08-03T21:36:50.802Z,7.08
2018-08-03T21:39:19.758Z,7.17
2018-08-03T21:41:48.724Z,7.05
2018-08-03T21:44:17.691Z,7.35
2018-08-03T21:46:46.669Z,7.20
2018-08-03T21:49:15.190Z,6.47
2018-08-03T21:51:44.185Z,6.78
2018-08-03T21:54:13.113Z,6.67
2018-08-03T21:56:42.083Z,7.03
2018-08-03T21:59:10.997Z,6.42
2018-08-03T22:01:39.997Z,7.17
2018-08-03T22:04:08.973Z,7.30
2018-08-03T22:06:37.942Z,7.25
2018-08-03T22:09:08.759Z,7.35
2018-08-03T22:11:37.754Z,7.55
2018-08-03T22:14:07.068Z,8.13
2018-08-03T22:16:36.076Z,6.60
2018-08-03T22:19:05.104Z,6.43
2018-08-03T22:21:34.114Z,7.30
2018-08-03T22:24:03.070Z,8.17
2018-08-03T22:26:32.047Z,7.80
2018-08-03T22:29:00.984Z,7.13
2018-08-03T22:31:30.157Z,6.97
2018-08-03T22:33:59.090Z,7.03
2018-08-03T22:36:27.686Z,7.40
2018-08-03T22:38:56.781Z,8.43
2018-08-03T22:41:25.770Z,7.07
2018-08-03T22:43:54.255Z,7.10
2018-08-03T22:46:23.220Z,8.17
2018-08-03T22:48:52.208Z,7.20
2018-08-03T22:51:21.260Z,7.33
2018-08-03T22:53:50.224Z,6.93
2018-08-03T22:56:19.204Z,7.13
2018-08-03T22:58:48.168Z,7.37
2018-08-03T23:01:17.127Z,8.07
2018-08-03T23:03:46.057Z,7.60
2018-08-03T23:06:15.012Z,7.50
2018-08-03T23:08:43.940Z,8.17
2018-08-03T23:11:12.915Z,7.80
2018-08-03T23:13:41.855Z,6.90
2018-08-03T23:16:10.820Z,7.37
2018-08-03T23:18:39.744Z,7.20
2018-08-03T23:21:08.709Z,7.23
2018-08-03T23:23:37.691Z,6.70
2018-08-03T23:26:06.665Z,7.17
2018-08-03T23:28:35.664Z,8.00
2018-08-03T23:31:04.681Z,7.23
2018-08-03T23:33:33.629Z,7.03
2018-08-03T23:36:02.647Z,7.50
2018-08-03T23:38:31.598Z,7.33
2018-08-03T23:41:00.630Z,7.28
2018-08-03T23:43:29.568Z,7.37
2018-08-03T23:45:58.546Z,7.60
2018-08-03T23:48:27.473Z,8.00
2018-08-03T23:50:56.428Z,8.03
2018-08-03T23:53:25.343Z,7.47
2018-08-03T23:55:54.344Z,7.17
2018-08-03T23:58:23.327Z,7.37
